createdAt,value
2019-03-10T00:02:28.691Z,3.47
2019-03-10T00:04:58.940Z,2.73
2019-03-10T00:07:29.389Z,2.50
2019-03-10T00:09:59.689Z,3.27
2019-03-10T00:12:30.163Z,3.60
2019-03-10T00:15:00.510Z,3.27
2019-03-10T00:17:31.020Z,3.87
2019-03-10T00:20:01.422Z,3.70
2019-03-10T00:22:31.684Z,3.73
2019-03-10T00:25:01.851Z,2.67
2019-03-10T00:27:32.235Z,3.00
2019-03-10T00:30:02.554Z,3.40
2019-03-10T00:32:32.790Z,2.58
2019-03-10T00:35:03.223Z,2.90
2019-03-10T00:37:33.561Z,3.00
2019-03-10T00:41:11.102Z,2.87
2019-03-10T00:44:45.107Z,3.00
2019-03-10T00:47:59.578Z,3.00
2019-03-10T00:51:24.702Z,2.90
2019-03-10T00:53:54.819Z,3.30
2019-03-10T00:56:25.040Z,2.90
2019-03-10T00:58:55.249Z,2.63
2019-03-10T01:01:25.473Z,2.43
2019-03-10T01:03:55.835Z,2.87
2019-03-10T01:06:26.181Z,2.93
2019-03-10T01:08:56.457Z,3.50
2019-03-10T01:11:26.771Z,2.80
2019-03-10T01:13:57.004Z,2.70
2019-03-10T01:16:27.489Z,2.33
2019-03-10T01:18:58.392Z,2.70
2019-03-10T01:21:29.019Z,3.03
2019-03-10T01:23:59.212Z,3.00
2019-03-10T01:26:29.434Z,3.77
2019-03-10T01:28:59.641Z,2.80
2019-03-10T01:32:05.468Z,2.55
2019-03-10T01:34:56.779Z,2.63
2019-03-10T01:37:26.898Z,3.00
2019-03-10T01:39:57.028Z,2.90
2019-03-10T01:42:27.214Z,2.97
2019-03-10T01:44:57.340Z,3.03
2019-03-10T01:47:27.427Z,2.53
2019-03-10T01:49:57.627Z,2.73
2019-03-10T01:52:27.894Z,2.90
2019-03-10T01:54:58.157Z,3.03
2019-03-10T01:57:28.339Z,3.27
2019-03-10T01:59:58.559Z,2.67
2019-03-10T02:02:28.781Z,2.93
2019-03-10T02:04:58.993Z,2.97
2019-03-10T02:07:29.128Z,2.40
2019-03-10T02:09:59.184Z,2.70
2019-03-10T02:12:29.414Z,3.50
2019-03-10T02:15:03.873Z,2.77
2019-03-10T02:17:39.696Z,2.63
2019-03-10T02:20:13.302Z,3.25
2019-03-10T02:22:43.388Z,2.53
2019-03-10T02:25:13.690Z,2.87
2019-03-10T02:27:43.817Z,2.93
2019-03-10T02:30:19.010Z,2.57
2019-03-10T02:32:49.201Z,3.13
2019-03-10T02:35:19.335Z,3.17
2019-03-10T02:37:54.187Z,3.47
2019-03-10T02:40:24.495Z,3.17
2019-03-10T02:42:54.713Z,3.20
2019-03-10T02:45:26.181Z,3.22
2019-03-10T02:47:56.315Z,2.90
2019-03-10T02:50:28.115Z,2.90
2019-03-10T02:52:58.363Z,3.20
2019-03-10T02:55:28.585Z,2.93
2019-03-10T02:57:58.735Z,3.10
2019-03-10T03:00:28.922Z,3.23
2019-03-10T03:02:59.061Z,3.27
2019-03-10T03:05:29.199Z,2.80
2019-03-10T03:07:59.403Z,2.77
2019-03-10T03:10:29.629Z,2.70
2019-03-10T03:12:59.831Z,3.00
2019-03-10T03:15:29.952Z,2.90
2019-03-10T03:18:00.070Z,2.83
2019-03-10T03:20:30.304Z,3.60
2019-03-10T03:23:00.531Z,2.90
2019-03-10T03:25:30.774Z,3.33
2019-03-10T03:28:02.376Z,3.30
2019-03-10T03:30:33.219Z,2.47
2019-03-10T03:33:03.538Z,2.83
2019-03-10T03:35:55.032Z,3.50
2019-03-10T03:38:39.364Z,3.33
2019-03-10T03:41:13.792Z,2.97
2019-03-10T03:43:44.236Z,2.67
2019-03-10T03:46:14.462Z,2.97
2019-03-10T03:48:44.663Z,3.27
2019-03-10T03:51:14.943Z,2.73
2019-03-10T03:53:45.078Z,2.60
2019-03-10T03:56:15.298Z,3.43
2019-03-10T03:58:45.540Z,3.33
2019-03-10T04:01:19.435Z,3.55
2019-03-10T04:03:49.841Z,2.90
2019-03-10T04:06:20.321Z,3.10
2019-03-10T04:08:50.772Z,3.03
2019-03-10T04:11:21.196Z,3.33
2019-03-10T04:13:51.395Z,2.73
2019-03-10T04:16:21.855Z,2.80
2019-03-10T04:18:52.340Z,2.80
2019-03-10T04:21:22.820Z,2.87
2019-03-10T04:23:53.189Z,3.17
2019-03-10T04:26:23.481Z,2.95
2019-03-10T04:28:53.701Z,3.80
2019-03-10T04:31:24.063Z,3.40
2019-03-10T04:33:57.045Z,3.20
2019-03-10T04:36:27.269Z,3.50
2019-03-10T04:39:00.587Z,3.50
2019-03-10T04:41:30.905Z,3.20
2019-03-10T04:44:01.121Z,2.93
2019-03-10T04:46:31.644Z,3.77
2019-03-10T04:49:01.754Z,2.90
2019-03-10T04:51:31.941Z,3.50
2019-03-10T04:54:02.012Z,2.93
2019-03-10T04:56:42.802Z,3.40
2019-03-10T04:59:12.931Z,3.23
2019-03-10T05:01:43.109Z,2.57
2019-03-10T05:04:13.311Z,3.03
2019-03-10T05:06:43.561Z,2.97
2019-03-10T05:09:15.502Z,3.17
2019-03-10T05:11:46.753Z,3.20
2019-03-10T05:14:16.816Z,2.80
2019-03-10T05:16:46.941Z,3.50
2019-03-10T05:19:17.049Z,2.90
2019-03-10T05:21:47.128Z,2.80
2019-03-10T05:24:17.402Z,3.13
2019-03-10T05:26:47.597Z,2.33
2019-03-10T05:29:17.665Z,3.17
2019-03-10T05:31:47.917Z,2.33
2019-03-10T05:34:17.971Z,3.00
2019-03-10T05:36:48.150Z,3.47
2019-03-10T05:39:18.265Z,2.90
2019-03-10T05:41:48.385Z,3.10
2019-03-10T05:44:18.526Z,3.10
2019-03-10T05:46:48.575Z,2.87
2019-03-10T05:49:18.619Z,3.33
2019-03-10T05:51:48.678Z,3.00
2019-03-10T05:54:18.823Z,2.47
2019-03-10T05:56:48.953Z,2.70
2019-03-10T05:59:19.045Z,3.17
2019-03-10T06:01:49.102Z,3.97
2019-03-10T06:04:19.241Z,2.83
2019-03-10T06:06:49.285Z,2.90
2019-03-10T06:09:19.400Z,3.55
2019-03-10T06:11:49.508Z,3.73
2019-03-10T06:14:19.654Z,3.77
2019-03-10T06:16:49.774Z,4.23
2019-03-10T06:19:19.801Z,3.63
2019-03-10T06:21:49.896Z,4.03
2019-03-10T06:24:19.976Z,3.83
2019-03-10T06:26:50.121Z,4.27
2019-03-10T06:29:22.483Z,4.40
2019-03-10T06:31:52.863Z,3.57
2019-03-10T06:34:23.359Z,3.58
2019-03-10T06:36:53.786Z,4.30
2019-03-10T06:39:24.215Z,4.55
2019-03-10T06:41:54.644Z,4.60
2019-03-10T06:44:26.991Z,5.57
2019-03-10T06:46:57.319Z,4.57
2019-03-10T06:49:27.771Z,4.60
2019-03-10T06:51:58.196Z,4.80
2019-03-10T06:54:28.606Z,4.07
2019-03-10T06:56:59.038Z,4.80
2019-03-10T06:59:29.464Z,4.73
2019-03-10T07:01:59.918Z,5.63
2019-03-10T07:04:30.396Z,5.80
2019-03-10T07:07:00.842Z,5.40
2019-03-10T07:09:31.392Z,4.60
2019-03-10T07:12:01.796Z,5.42
2019-03-10T07:14:32.214Z,4.50
2019-03-10T07:17:02.661Z,5.93
2019-03-10T07:19:33.080Z,4.77
2019-03-10T07:22:03.606Z,4.17
2019-03-10T07:24:34.033Z,5.42
2019-03-10T07:27:04.823Z,4.97
2019-03-10T07:29:42.936Z,4.55
2019-03-10T07:32:19.041Z,4.40
2019-03-10T07:35:11.431Z,3.70
2019-03-10T07:38:15.719Z,4.00
2019-03-10T07:41:01.361Z,3.47
2019-03-10T07:43:49.457Z,3.50
2019-03-10T07:46:48.013Z,3.70
2019-03-10T07:49:27.446Z,3.70
2019-03-10T07:52:20.604Z,3.77
2019-03-10T07:55:25.655Z,4.23
2019-03-10T07:58:24.586Z,3.57
2019-03-10T08:01:19.339Z,4.03
2019-03-10T08:04:11.764Z,3.60
2019-03-10T08:07:04.243Z,3.57
2019-03-10T08:09:53.701Z,3.57
2019-03-10T08:12:41.719Z,3.90
2019-03-10T08:15:29.654Z,4.13
2019-03-10T08:18:17.448Z,3.80
2019-03-10T08:20:58.084Z,3.50
2019-03-10T08:24:32.390Z,3.80
2019-03-10T08:27:17.523Z,3.03
2019-03-10T08:30:04.363Z,3.60
2019-03-10T08:32:53.407Z,4.17
2019-03-10T08:35:52.632Z,2.90
2019-03-10T08:38:33.730Z,3.90
2019-03-10T08:41:21.369Z,3.97
2019-03-10T08:43:59.053Z,3.23
2019-03-10T08:46:41.620Z,3.53
2019-03-10T08:49:44.460Z,3.57
2019-03-10T08:52:14.040Z,3.47
2019-03-10T08:54:59.776Z,3.73
2019-03-10T08:57:47.654Z,3.20
2019-03-10T09:00:36.797Z,3.60
2019-03-10T09:03:17.393Z,3.95
2019-03-10T09:06:09.567Z,3.50
2019-03-10T09:08:49.930Z,3.97
2019-03-10T09:14:14.182Z,4.30
2019-03-10T09:16:59.234Z,4.83
2019-03-10T09:19:51.475Z,4.60
2019-03-10T09:22:34.207Z,3.87
2019-03-10T09:25:29.348Z,3.50
2019-03-10T09:28:21.203Z,3.40
2019-03-10T09:31:16.236Z,3.83
2019-03-10T09:33:56.991Z,3.97
2019-03-10T09:36:40.068Z,3.47
2019-03-10T09:39:38.307Z,3.67
2019-03-10T09:42:25.798Z,4.57
2019-03-10T09:45:10.695Z,4.17
2019-03-10T09:48:02.970Z,3.55
2019-03-10T09:50:56.325Z,3.77
2019-03-10T09:53:34.600Z,3.40
2019-03-10T09:56:26.866Z,3.73
2019-03-10T09:59:24.119Z,3.50
2019-03-10T10:02:25.525Z,4.20
2019-03-10T10:05:03.379Z,3.45
2019-03-10T10:07:45.712Z,3.93
2019-03-10T10:10:38.001Z,3.40
2019-03-10T10:13:21.187Z,4.23
2019-03-10T10:16:25.642Z,3.97
2019-03-10T10:19:20.816Z,4.80
2019-03-10T10:22:00.795Z,4.10
2019-03-10T10:24:36.953Z,4.23
2019-03-10T10:27:23.232Z,4.63
2019-03-10T10:30:18.422Z,4.77
2019-03-10T10:33:06.905Z,3.90
2019-03-10T10:35:47.347Z,4.57
2019-03-10T10:38:39.465Z,4.25
2019-03-10T10:41:27.949Z,4.10
2019-03-10T10:44:12.392Z,4.40
2019-03-10T10:46:49.668Z,4.15
2019-03-10T10:49:37.913Z,3.90
2019-03-10T10:52:20.100Z,4.17
2019-03-10T10:55:00.835Z,4.17
2019-03-10T10:57:42.688Z,4.20
2019-03-10T11:00:27.789Z,4.08
2019-03-10T11:03:23.641Z,5.00
2019-03-10T11:06:19.949Z,4.67
2019-03-10T11:09:04.484Z,5.03
2019-03-10T11:11:53.548Z,5.40
2019-03-10T11:14:48.682Z,5.22
2019-03-10T11:17:37.826Z,5.67
2019-03-10T11:20:33.711Z,5.03
2019-03-10T11:23:28.766Z,5.30
2019-03-10T11:26:30.105Z,5.53
2019-03-10T11:29:09.448Z,5.17
2019-03-10T11:32:01.444Z,5.37
2019-03-10T11:34:43.000Z,5.67
2019-03-10T11:37:29.843Z,5.63
2019-03-10T11:40:33.975Z,5.50
2019-03-10T11:43:09.199Z,5.20
2019-03-10T11:45:57.867Z,5.20
2019-03-10T11:48:52.963Z,4.57
2019-03-10T11:51:39.816Z,4.60
2019-03-10T11:54:17.774Z,4.70
2019-03-10T11:57:19.121Z,4.37
2019-03-10T12:00:11.576Z,4.77
2019-03-10T12:03:04.027Z,3.80
2019-03-10T12:05:56.869Z,4.03
2019-03-10T12:08:58.106Z,5.43
2019-03-10T12:11:28.502Z,5.80
2019-03-10T12:13:58.596Z,4.40
2019-03-10T12:16:31.081Z,4.27
2019-03-10T12:19:00.957Z,3.47
2019-03-10T12:21:31.141Z,3.53
2019-03-10T12:24:01.477Z,3.27
2019-03-10T12:26:36.209Z,3.65
2019-03-10T12:29:06.965Z,3.55
2019-03-10T12:31:37.230Z,2.87
2019-03-10T12:34:07.596Z,2.80
2019-03-10T12:36:37.784Z,2.60
2019-03-10T12:39:09.596Z,3.00
2019-03-10T12:41:39.817Z,2.90
2019-03-10T12:45:48.088Z,6.23
2019-03-10T12:48:19.049Z,2.67
2019-03-10T12:50:49.180Z,2.47
2019-03-10T12:53:19.413Z,2.77
2019-03-10T12:55:49.585Z,2.00
2019-03-10T12:58:19.827Z,2.27
2019-03-10T13:00:50.070Z,2.23
2019-03-10T13:03:20.248Z,2.00
2019-03-10T13:05:50.446Z,2.10
2019-03-10T13:08:20.530Z,2.13
2019-03-10T13:11:08.888Z,1.90
2019-03-10T13:13:39.286Z,1.77
2019-03-10T13:16:12.248Z,2.07
2019-03-10T13:18:41.651Z,2.10
2019-03-10T13:21:11.959Z,2.20
2019-03-10T13:23:42.288Z,2.43
2019-03-10T13:26:12.403Z,2.05
2019-03-10T13:28:42.639Z,1.50
2019-03-10T13:31:13.022Z,1.80
2019-03-10T13:33:43.318Z,1.40
2019-03-10T13:36:13.581Z,1.50
2019-03-10T13:38:43.807Z,1.50
2019-03-10T13:41:14.103Z,1.63
2019-03-10T13:43:44.361Z,1.77
2019-03-10T13:46:14.701Z,1.77
2019-03-10T13:48:45.031Z,2.20
2019-03-10T13:51:15.288Z,1.70
2019-03-10T13:53:45.511Z,1.90
2019-03-10T13:56:15.680Z,2.17
2019-03-10T13:58:45.887Z,1.90
2019-03-10T14:01:16.178Z,2.10
2019-03-10T14:03:46.411Z,2.27
2019-03-10T14:06:16.658Z,2.20
2019-03-10T14:08:46.815Z,2.23
2019-03-10T14:11:17.119Z,1.93
2019-03-10T14:13:47.272Z,2.20
2019-03-10T14:16:17.621Z,2.00
2019-03-10T14:18:47.822Z,2.60
2019-03-10T14:21:18.084Z,2.17
2019-03-10T14:23:48.298Z,1.80
2019-03-10T14:26:18.623Z,1.90
2019-03-10T14:28:48.952Z,2.37
2019-03-10T14:31:19.225Z,1.95
2019-03-10T14:33:49.558Z,2.07
2019-03-10T14:36:20.089Z,2.30
2019-03-10T14:38:50.446Z,8.43
2019-03-10T14:41:20.693Z,2.17
2019-03-10T14:43:50.976Z,2.47
2019-03-10T14:46:21.100Z,2.10
2019-03-10T14:48:51.297Z,2.13
2019-03-10T14:51:29.320Z,5.77
2019-03-10T14:54:02.617Z,6.17
2019-03-10T14:56:32.902Z,5.40
2019-03-10T14:59:02.994Z,4.80
2019-03-10T15:01:33.285Z,3.97
2019-03-10T15:04:05.059Z,3.90
2019-03-10T15:06:35.218Z,2.80
2019-03-10T15:09:07.239Z,2.40
2019-03-10T15:11:37.383Z,2.60
2019-03-10T15:14:07.627Z,2.90
2019-03-10T15:16:37.869Z,1.87
2019-03-10T15:19:08.184Z,2.20
2019-03-10T15:21:38.428Z,2.20
2019-03-10T15:24:08.575Z,2.07
2019-03-10T15:26:45.510Z,2.13
2019-03-10T15:29:10.654Z,2.20
2019-03-10T15:31:40.789Z,1.40
2019-03-10T15:34:10.964Z,1.85
2019-03-10T15:36:41.605Z,1.73
2019-03-10T15:39:12.020Z,2.20
2019-03-10T15:41:42.248Z,2.60
2019-03-10T15:44:12.428Z,3.00
2019-03-10T15:49:14.036Z,3.90
2019-03-10T15:51:44.782Z,3.63
2019-03-10T15:54:14.954Z,3.57
2019-03-10T15:56:45.177Z,3.73
2019-03-10T15:59:15.391Z,4.60
2019-03-10T16:01:48.540Z,4.60
2019-03-10T16:04:23.474Z,4.30
2019-03-10T16:06:53.618Z,4.20
2019-03-10T16:09:23.847Z,4.13
2019-03-10T16:11:54.092Z,4.30
2019-03-10T16:14:24.387Z,3.50
2019-03-10T16:16:54.450Z,3.47
2019-03-10T16:19:24.505Z,3.63
2019-03-10T16:21:54.702Z,3.97
2019-03-10T16:24:24.913Z,3.37
2019-03-10T16:26:58.476Z,3.40
2019-03-10T16:29:28.698Z,3.20
2019-03-10T16:31:58.907Z,2.57
2019-03-10T16:34:29.032Z,3.03
2019-03-10T16:36:59.281Z,3.03
2019-03-10T16:39:29.471Z,2.40
2019-03-10T16:41:59.645Z,2.87
2019-03-10T16:44:53.296Z,2.97
2019-03-10T16:47:30.663Z,2.90
2019-03-10T16:50:09.528Z,2.63
2019-03-10T16:52:47.025Z,2.80
2019-03-10T16:55:25.399Z,2.40
2019-03-10T16:58:07.334Z,2.30
2019-03-10T17:00:45.606Z,2.73
2019-03-10T17:03:26.124Z,2.73
2019-03-10T17:06:03.795Z,2.97
2019-03-10T17:08:41.316Z,3.00
2019-03-10T17:11:19.006Z,2.70
2019-03-10T17:13:55.522Z,2.90
2019-03-10T17:16:33.765Z,2.85
2019-03-10T17:19:10.874Z,2.73
2019-03-10T17:21:47.955Z,4.13
2019-03-10T17:24:24.455Z,3.50
2019-03-10T17:27:01.445Z,3.43
2019-03-10T17:29:37.954Z,3.60
2019-03-10T17:32:15.249Z,3.33
2019-03-10T17:34:54.446Z,2.70
2019-03-10T17:37:30.859Z,2.97
2019-03-10T17:40:08.791Z,3.10
2019-03-10T17:42:45.780Z,3.23
2019-03-10T17:45:26.739Z,2.87
2019-03-10T17:48:05.349Z,2.50
2019-03-10T17:50:42.970Z,2.90
2019-03-10T17:53:23.697Z,2.87
2019-03-10T17:55:59.692Z,2.70
2019-03-10T17:58:36.515Z,2.67
2019-03-10T18:01:13.272Z,3.00
2019-03-10T18:03:50.557Z,2.57
2019-03-10T18:06:30.256Z,2.20
2019-03-10T18:09:09.091Z,1.60
2019-03-10T18:11:45.450Z,1.00
2019-03-10T18:14:23.096Z,1.00
2019-03-10T18:17:01.716Z,1.07
2019-03-10T18:19:38.685Z,1.42
2019-03-10T18:22:16.560Z,1.77
2019-03-10T18:24:53.970Z,1.80
2019-03-10T18:27:31.830Z,2.00
2019-03-10T18:30:09.476Z,2.40
2019-03-10T18:32:47.904Z,2.20
2019-03-10T18:35:24.424Z,2.20
2019-03-10T18:38:02.153Z,2.10
2019-03-10T18:40:38.743Z,1.60
2019-03-10T18:43:15.045Z,2.40
2019-03-10T18:45:53.988Z,1.90
2019-03-10T18:48:30.306Z,1.67
2019-03-10T18:51:06.230Z,1.60
2019-03-10T18:53:42.945Z,2.23
2019-03-10T18:56:17.819Z,2.00
2019-03-10T18:58:57.145Z,2.17
2019-03-10T19:01:34.511Z,2.07
2019-03-10T19:04:10.548Z,1.70
2019-03-10T19:06:54.754Z,1.40
2019-03-10T19:09:29.611Z,1.60
2019-03-10T19:12:05.310Z,1.20
2019-03-10T19:14:35.396Z,2.90
2019-03-10T19:17:06.626Z,1.88
2019-03-10T19:19:36.840Z,1.57
2019-03-10T19:22:07.325Z,1.37
2019-03-10T19:24:37.947Z,1.90
2019-03-10T19:27:08.431Z,1.70
2019-03-10T19:29:39.226Z,1.20
2019-03-10T19:32:13.795Z,1.20
2019-03-10T19:34:46.689Z,1.10
2019-03-10T19:37:17.872Z,1.30
2019-03-10T19:39:48.488Z,0.93
2019-03-10T19:42:19.131Z,1.60
2019-03-10T19:44:49.681Z,1.37
2019-03-10T19:47:20.385Z,1.55
2019-03-10T19:49:50.792Z,1.20
2019-03-10T19:52:21.465Z,1.40
2019-03-10T19:54:52.582Z,1.53
2019-03-10T19:57:22.925Z,1.20
2019-03-10T19:59:53.903Z,1.20
2019-03-10T20:02:24.401Z,1.47
2019-03-10T20:04:54.888Z,1.50
2019-03-10T20:07:25.243Z,1.50
2019-03-10T20:09:55.785Z,1.10
2019-03-10T20:12:26.288Z,1.40
2019-03-10T20:14:56.807Z,1.70
2019-03-10T20:17:27.351Z,1.60
2019-03-10T20:19:57.788Z,2.07
2019-03-10T20:22:28.407Z,2.10
2019-03-10T20:24:59.008Z,2.03
2019-03-10T20:27:29.628Z,2.13
2019-03-10T20:30:00.352Z,2.60
2019-03-10T20:32:30.712Z,2.20
2019-03-10T20:35:01.170Z,2.30
2019-03-10T20:37:31.675Z,2.20
2019-03-10T20:40:02.185Z,2.60
2019-03-10T20:42:32.756Z,2.60
2019-03-10T20:45:03.240Z,2.50
2019-03-10T20:47:34.078Z,2.62
2019-03-10T20:50:04.974Z,2.77
2019-03-10T20:52:35.787Z,3.47
2019-03-10T20:55:06.339Z,5.30
2019-03-10T20:57:36.951Z,2.33
2019-03-10T21:00:20.161Z,2.83
2019-03-10T21:02:47.125Z,2.40
2019-03-10T21:05:18.462Z,2.53
2019-03-10T21:07:49.311Z,2.77
2019-03-10T21:10:20.077Z,2.50
2019-03-10T21:12:50.656Z,2.50
2019-03-10T21:15:21.221Z,2.40
2019-03-10T21:17:52.258Z,2.47
2019-03-10T21:20:26.520Z,2.57
2019-03-10T21:22:57.006Z,2.43
2019-03-10T21:25:29.016Z,2.73
2019-03-10T21:27:59.850Z,2.33
2019-03-10T21:30:30.641Z,2.67
2019-03-10T21:33:01.183Z,2.27
2019-03-10T21:35:33.284Z,2.80
2019-03-10T21:38:04.190Z,2.55
2019-03-10T21:40:34.928Z,2.27
2019-03-10T21:43:06.128Z,1.97
2019-03-10T21:45:36.847Z,2.13
2019-03-10T21:48:07.493Z,1.92
2019-03-10T21:50:38.224Z,2.50
2019-03-10T21:53:09.038Z,2.30
2019-03-10T21:55:39.563Z,2.60
2019-03-10T21:58:10.111Z,2.73
2019-03-10T22:00:40.486Z,2.57
2019-03-10T22:03:11.036Z,2.73
2019-03-10T22:05:41.696Z,3.40
2019-03-10T22:08:12.187Z,3.60
2019-03-10T22:10:43.027Z,3.20
2019-03-10T22:13:13.506Z,3.52
2019-03-10T22:15:44.153Z,3.13
2019-03-10T22:18:14.833Z,2.80
2019-03-10T22:20:45.361Z,2.50
2019-03-10T22:23:21.898Z,2.10
2019-03-10T22:25:52.438Z,2.43
2019-03-10T22:28:22.904Z,2.60
2019-03-10T22:30:53.330Z,3.03
2019-03-10T22:33:23.795Z,5.33
2019-03-10T22:35:54.489Z,2.90
2019-03-10T22:38:25.104Z,2.80
2019-03-10T22:40:55.303Z,2.53
2019-03-10T22:43:25.523Z,2.20
2019-03-10T22:45:55.670Z,1.90
2019-03-10T22:48:25.976Z,2.47
2019-03-10T22:50:56.103Z,2.13
2019-03-10T22:53:26.244Z,2.10
2019-03-10T22:55:56.421Z,1.80
2019-03-10T22:58:26.628Z,1.95
2019-03-10T23:00:58.293Z,1.47
2019-03-10T23:03:28.649Z,1.60
2019-03-10T23:05:58.871Z,1.90
2019-03-10T23:08:29.031Z,1.50
2019-03-10T23:10:59.302Z,1.63
2019-03-10T23:13:29.433Z,2.10
2019-03-10T23:15:59.618Z,2.43
2019-03-10T23:18:29.741Z,2.53
2019-03-10T23:20:59.887Z,2.03
2019-03-10T23:23:30.025Z,2.63
2019-03-10T23:26:00.231Z,2.37
2019-03-10T23:28:30.480Z,3.10
2019-03-10T23:31:00.716Z,2.60
2019-03-10T23:33:31.045Z,2.57
2019-03-10T23:36:01.339Z,2.27
2019-03-10T23:38:31.659Z,3.23
2019-03-10T23:41:01.874Z,2.80
2019-03-10T23:43:31.955Z,2.77
2019-03-10T23:46:02.727Z,2.53
2019-03-10T23:48:32.954Z,3.23
2019-03-10T23:51:03.189Z,2.73
2019-03-10T23:53:33.360Z,3.13
2019-03-10T23:56:03.625Z,3.37
2019-03-10T23:58:33.878Z,3.43
